sensor_id;sensor_type;location;lat;lon;timestamp;P1;durP1;ratioP1;P2;durP2;ratioP2
20880;SDS011;10600;53.096;8.802;2023-07-29T00:00:43;73.38;;;38.97;;
20880;SDS011;10600;53.096;8.802;2023-07-29T00:01:44;76.03;;;37.92;;
20880;SDS011;10600;53.096;8.802;2023-07-29T00:02:45;65.82;;;36.42;;
20880;SDS011;10600;53.096;8.802;2023-07-29T00:03:46;68.85;;;37.65;;
20880;SDS011;10600;53.096;8.802;2023-07-29T00:04:47;79.45;;;38.30;;
20880;SDS011;10600;53.096;8.802;2023-07-29T00:05:48;75.32;;;39.15;;
20880;SDS011;10600;53.096;8.802;2023-07-29T00:06:49;70.40;;;38.72;;
20880;SDS011;10600;53.096;8.802;2023-07-29T00:07:50;69.07;;;35.13;;
20880;SDS011;10600;53.096;8.802;2023-07-29T00:08:51;79.70;;;38.92;;
20880;SDS011;10600;53.096;8.802;2023-07-29T00:09:52;67.97;;;36.30;;
20880;SDS011;10600;53.096;8.802;2023-07-29T00:10:53;73.80;;;39.30;;
20880;SDS011;10600;53.096;8.802;2023-07-29T00:11:54;67.88;;;37.47;;
20880;SDS011;10600;53.096;8.802;2023-07-29T00:12:55;70.13;;;37.47;;
20880;SDS011;10600;53.096;8.802;2023-07-29T00:13:56;70.25;;;37.30;;
20880;SDS011;10600;53.096;8.802;2023-07-29T00:14:57;75.32;;;38.15;;
20880;SDS011;10600;53.096;8.802;2023-07-29T00:15:58;72.95;;;38.63;;
20880;SDS011;10600;53.096;8.802;2023-07-29T00:16:59;73.15;;;38.08;;
20880;SDS011;10600;53.096;8.802;2023-07-29T00:18:00;78.53;;;38.90;;
20880;SDS011;10600;53.096;8.802;2023-07-29T00:19:02;78.47;;;39.90;;
20880;SDS011;10600;53.096;8.802;2023-07-29T00:20:03;91.93;;;41.90;;
20880;SDS011;10600;53.096;8.802;2023-07-29T00:21:05;77.30;;;39.10;;
20880;SDS011;10600;53.096;8.802;2023-07-29T00:22:06;81.65;;;41.80;;
20880;SDS011;10600;53.096;8.802;2023-07-29T00:23:08;84.03;;;42.78;;
20880;SDS011;10600;53.096;8.802;2023-07-29T00:24:09;78.72;;;40.38;;
20880;SDS011;10600;53.096;8.802;2023-07-29T00:25:10;72.35;;;38.80;;
20880;SDS011;10600;53.096;8.802;2023-07-29T00:26:11;76.82;;;39.50;;
20880;SDS011;10600;53.096;8.802;2023-07-29T00:27:12;80.72;;;40.05;;
20880;SDS011;10600;53.096;8.802;2023-07-29T00:28:13;80.90;;;39.63;;
20880;SDS011;10600;53.096;8.802;2023-07-29T00:29:14;79.15;;;39.20;;
20880;SDS011;10600;53.096;8.802;2023-07-29T00:30:15;76.47;;;40.05;;
20880;SDS011;10600;53.096;8.802;2023-07-29T00:31:16;70.95;;;39.22;;
20880;SDS011;10600;53.096;8.802;2023-07-29T00:32:17;97.63;;;43.40;;
20880;SDS011;10600;53.096;8.802;2023-07-29T00:33:18;100.05;;;46.13;;
20880;SDS011;10600;53.096;8.802;2023-07-29T00:34:20;87.93;;;43.75;;
20880;SDS011;10600;53.096;8.802;2023-07-29T00:35:21;95.43;;;43.15;;
20880;SDS011;10600;53.096;8.802;2023-07-29T00:36:22;78.65;;;42.53;;
20880;SDS011;10600;53.096;8.802;2023-07-29T00:37:23;83.63;;;43.13;;
20880;SDS011;10600;53.096;8.802;2023-07-29T00:38:24;82.15;;;40.58;;
20880;SDS011;10600;53.096;8.802;2023-07-29T00:39:25;80.53;;;41.20;;
20880;SDS011;10600;53.096;8.802;2023-07-29T00:40:27;86.68;;;41.95;;
20880;SDS011;10600;53.096;8.802;2023-07-29T00:41:28;93.05;;;42.88;;
20880;SDS011;10600;53.096;8.802;2023-07-29T00:42:30;93.63;;;43.35;;
20880;SDS011;10600;53.096;8.802;2023-07-29T00:43:31;81.32;;;41.97;;
20880;SDS011;10600;53.096;8.802;2023-07-29T00:44:32;79.78;;;40.65;;
20880;SDS011;10600;53.096;8.802;2023-07-29T00:45:33;78.03;;;41.28;;
20880;SDS011;10600;53.096;8.802;2023-07-29T00:46:34;85.32;;;40.40;;
20880;SDS011;10600;53.096;8.802;2023-07-29T00:47:37;84.65;;;41.22;;
20880;SDS011;10600;53.096;8.802;2023-07-29T00:48:38;81.30;;;41.20;;
20880;SDS011;10600;53.096;8.802;2023-07-29T00:49:39;83.32;;;40.70;;
20880;SDS011;10600;53.096;8.802;2023-07-29T00:50:40;72.32;;;39.33;;
20880;SDS011;10600;53.096;8.802;2023-07-29T00:51:41;90.40;;;41.70;;
20880;SDS011;10600;53.096;8.802;2023-07-29T00:52:42;82.07;;;40.28;;
20880;SDS011;10600;53.096;8.802;2023-07-29T00:53:43;76.03;;;38.75;;
20880;SDS011;10600;53.096;8.802;2023-07-29T00:54:44;81.38;;;40.35;;
20880;SDS011;10600;53.096;8.802;2023-07-29T00:55:45;82.35;;;39.63;;
20880;SDS011;10600;53.096;8.802;2023-07-29T00:56:46;78.35;;;41.30;;
20880;SDS011;10600;53.096;8.802;2023-07-29T00:57:47;88.28;;;42.25;;
20880;SDS011;10600;53.096;8.802;2023-07-29T00:58:51;79.90;;;40.30;;
20880;SDS011;10600;53.096;8.802;2023-07-29T00:59:59;89.55;;;42.72;;
20880;SDS011;10600;53.096;8.802;2023-07-29T01:01:00;86.82;;;41.63;;
20880;SDS011;10600;53.096;8.802;2023-07-29T01:02:01;80.68;;;41.08;;
20880;SDS011;10600;53.096;8.802;2023-07-29T01:03:02;94.30;;;42.83;;
20880;SDS011;10600;53.096;8.802;2023-07-29T01:04:04;79.47;;;42.38;;
20880;SDS011;10600;53.096;8.802;2023-07-29T01:05:05;83.20;;;41.25;;
20880;SDS011;10600;53.096;8.802;2023-07-29T01:06:15;87.93;;;43.65;;
20880;SDS011;10600;53.096;8.802;2023-07-29T01:07:22;87.07;;;41.47;;
20880;SDS011;10600;53.096;8.802;2023-07-29T01:08:31;88.82;;;42.55;;
20880;SDS011;10600;53.096;8.802;2023-07-29T01:13:24;81.68;;;41.28;;
20880;SDS011;10600;53.096;8.802;2023-07-29T01:14:34;86.32;;;41.35;;
20880;SDS011;10600;53.096;8.802;2023-07-29T01:16:53;84.38;;;40.08;;
20880;SDS011;10600;53.096;8.802;2023-07-29T01:18:02;83.75;;;41.13;;
20880;SDS011;10600;53.096;8.802;2023-07-29T01:19:05;85.65;;;40.90;;
20880;SDS011;10600;53.096;8.802;2023-07-29T01:20:11;95.90;;;43.92;;
20880;SDS011;10600;53.096;8.802;2023-07-29T01:21:14;93.00;;;42.63;;
20880;SDS011;10600;53.096;8.802;2023-07-29T01:22:18;93.43;;;43.00;;
20880;SDS011;10600;53.096;8.802;2023-07-29T01:23:29;96.00;;;43.70;;
20880;SDS011;10600;53.096;8.802;2023-07-29T01:24:30;98.93;;;45.33;;
20880;SDS011;10600;53.096;8.802;2023-07-29T01:25:31;90.70;;;42.53;;
20880;SDS011;10600;53.096;8.802;2023-07-29T01:26:32;94.40;;;42.63;;
20880;SDS011;10600;53.096;8.802;2023-07-29T01:27:34;95.60;;;44.28;;
20880;SDS011;10600;53.096;8.802;2023-07-29T01:28:35;102.53;;;43.33;;
20880;SDS011;10600;53.096;8.802;2023-07-29T01:29:36;98.50;;;43.60;;
20880;SDS011;10600;53.096;8.802;2023-07-29T01:30:38;101.75;;;44.28;;
20880;SDS011;10600;53.096;8.802;2023-07-29T01:31:42;104.78;;;44.45;;
20880;SDS011;10600;53.096;8.802;2023-07-29T01:33:48;108.60;;;46.72;;
20880;SDS011;10600;53.096;8.802;2023-07-29T01:36:04;103.80;;;43.28;;
20880;SDS011;10600;53.096;8.802;2023-07-29T01:37:07;112.40;;;44.47;;
20880;SDS011;10600;53.096;8.802;2023-07-29T01:38:13;100.38;;;45.85;;
20880;SDS011;10600;53.096;8.802;2023-07-29T01:39:15;105.38;;;45.25;;
20880;SDS011;10600;53.096;8.802;2023-07-29T01:40:17;99.40;;;45.65;;
20880;SDS011;10600;53.096;8.802;2023-07-29T01:41:19;107.97;;;46.63;;
20880;SDS011;10600;53.096;8.802;2023-07-29T01:42:21;104.53;;;45.72;;
20880;SDS011;10600;53.096;8.802;2023-07-29T01:43:22;112.53;;;45.47;;
20880;SDS011;10600;53.096;8.802;2023-07-29T01:44:25;90.50;;;42.83;;
20880;SDS011;10600;53.096;8.802;2023-07-29T01:45:27;113.25;;;46.05;;
20880;SDS011;10600;53.096;8.802;2023-07-29T01:46:28;105.30;;;46.42;;
20880;SDS011;10600;53.096;8.802;2023-07-29T01:47:29;115.82;;;47.58;;
20880;SDS011;10600;53.096;8.802;2023-07-29T01:48:30;113.65;;;46.25;;
20880;SDS011;10600;53.096;8.802;2023-07-29T01:49:31;115.13;;;47.25;;
20880;SDS011;10600;53.096;8.802;2023-07-29T01:50:33;112.20;;;46.70;;
20880;SDS011;10600;53.096;8.802;2023-07-29T01:51:34;108.90;;;47.53;;
20880;SDS011;10600;53.096;8.802;2023-07-29T01:52:35;117.40;;;47.55;;
20880;SDS011;10600;53.096;8.802;2023-07-29T01:53:36;115.82;;;46.85;;
20880;SDS011;10600;53.096;8.802;2023-07-29T01:54:37;105.18;;;46.70;;
20880;SDS011;10600;53.096;8.802;2023-07-29T01:55:38;98.40;;;45.38;;
20880;SDS011;10600;53.096;8.802;2023-07-29T01:56:40;111.55;;;47.08;;
20880;SDS011;10600;53.096;8.802;2023-07-29T01:57:41;115.13;;;46.65;;
20880;SDS011;10600;53.096;8.802;2023-07-29T01:58:44;105.07;;;45.15;;
20880;SDS011;10600;53.096;8.802;2023-07-29T01:59:45;112.20;;;47.42;;
20880;SDS011;10600;53.096;8.802;2023-07-29T02:00:46;118.78;;;47.33;;
20880;SDS011;10600;53.096;8.802;2023-07-29T02:01:48;121.28;;;46.30;;
20880;SDS011;10600;53.096;8.802;2023-07-29T02:02:51;115.13;;;46.35;;
20880;SDS011;10600;53.096;8.802;2023-07-29T02:03:52;118.50;;;45.92;;
20880;SDS011;10600;53.096;8.802;2023-07-29T02:04:55;120.65;;;47.05;;
20880;SDS011;10600;53.096;8.802;2023-07-29T02:05:56;127.07;;;48.83;;
20880;SDS011;10600;53.096;8.802;2023-07-29T02:06:57;118.05;;;46.63;;
20880;SDS011;10600;53.096;8.802;2023-07-29T02:07:58;124.07;;;46.08;;
20880;SDS011;10600;53.096;8.802;2023-07-29T02:09:00;114.88;;;46.60;;
20880;SDS011;10600;53.096;8.802;2023-07-29T02:10:01;113.30;;;47.03;;
20880;SDS011;10600;53.096;8.802;2023-07-29T02:11:02;111.32;;;47.05;;
20880;SDS011;10600;53.096;8.802;2023-07-29T02:12:03;121.68;;;46.28;;
20880;SDS011;10600;53.096;8.802;2023-07-29T02:13:04;116.85;;;46.40;;
20880;SDS011;10600;53.096;8.802;2023-07-29T02:14:05;127.00;;;47.90;;
20880;SDS011;10600;53.096;8.802;2023-07-29T02:15:06;112.40;;;46.42;;
20880;SDS011;10600;53.096;8.802;2023-07-29T02:16:07;129.82;;;48.35;;
20880;SDS011;10600;53.096;8.802;2023-07-29T02:17:08;120.75;;;47.88;;
20880;SDS011;10600;53.096;8.802;2023-07-29T02:18:09;124.97;;;49.47;;
20880;SDS011;10600;53.096;8.802;2023-07-29T02:19:10;125.13;;;47.75;;
20880;SDS011;10600;53.096;8.802;2023-07-29T02:20:12;116.65;;;47.67;;
20880;SDS011;10600;53.096;8.802;2023-07-29T02:21:13;122.72;;;48.40;;
20880;SDS011;10600;53.096;8.802;2023-07-29T02:22:15;118.30;;;47.53;;
20880;SDS011;10600;53.096;8.802;2023-07-29T02:23:17;126.70;;;48.15;;
20880;SDS011;10600;53.096;8.802;2023-07-29T02:24:18;116.53;;;47.28;;
20880;SDS011;10600;53.096;8.802;2023-07-29T02:25:19;122.00;;;47.15;;
20880;SDS011;10600;53.096;8.802;2023-07-29T02:26:20;117.05;;;49.55;;
20880;SDS011;10600;53.096;8.802;2023-07-29T02:27:21;108.60;;;47.00;;
20880;SDS011;10600;53.096;8.802;2023-07-29T02:28:25;122.40;;;48.20;;
20880;SDS011;10600;53.096;8.802;2023-07-29T02:29:26;119.35;;;48.72;;
20880;SDS011;10600;53.096;8.802;2023-07-29T02:30:27;123.60;;;50.00;;
20880;SDS011;10600;53.096;8.802;2023-07-29T02:31:28;122.43;;;47.42;;
20880;SDS011;10600;53.096;8.802;2023-07-29T02:32:29;116.32;;;47.28;;
20880;SDS011;10600;53.096;8.802;2023-07-29T02:33:30;122.13;;;47.20;;
20880;SDS011;10600;53.096;8.802;2023-07-29T02:34:31;134.35;;;50.80;;
20880;SDS011;10600;53.096;8.802;2023-07-29T02:35:32;120.63;;;47.97;;
20880;SDS011;10600;53.096;8.802;2023-07-29T02:36:33;138.82;;;51.45;;
20880;SDS011;10600;53.096;8.802;2023-07-29T02:37:34;133.23;;;50.45;;
20880;SDS011;10600;53.096;8.802;2023-07-29T02:38:35;128.13;;;48.63;;
20880;SDS011;10600;53.096;8.802;2023-07-29T02:39:36;129.15;;;47.88;;
20880;SDS011;10600;53.096;8.802;2023-07-29T02:40:37;123.60;;;47.08;;
20880;SDS011;10600;53.096;8.802;2023-07-29T02:41:39;114.75;;;45.67;;
20880;SDS011;10600;53.096;8.802;2023-07-29T02:42:40;137.60;;;49.47;;
20880;SDS011;10600;53.096;8.802;2023-07-29T02:43:41;137.82;;;52.38;;
20880;SDS011;10600;53.096;8.802;2023-07-29T02:44:43;138.48;;;51.20;;
20880;SDS011;10600;53.096;8.802;2023-07-29T02:45:44;124.05;;;49.95;;
20880;SDS011;10600;53.096;8.802;2023-07-29T02:46:45;133.93;;;51.55;;
20880;SDS011;10600;53.096;8.802;2023-07-29T02:47:46;133.48;;;50.25;;
20880;SDS011;10600;53.096;8.802;2023-07-29T02:48:47;129.38;;;50.03;;
20880;SDS011;10600;53.096;8.802;2023-07-29T02:49:48;124.13;;;48.92;;
20880;SDS011;10600;53.096;8.802;2023-07-29T02:50:49;155.38;;;53.38;;
20880;SDS011;10600;53.096;8.802;2023-07-29T02:51:50;136.40;;;50.05;;
20880;SDS011;10600;53.096;8.802;2023-07-29T02:52:51;130.50;;;50.38;;
20880;SDS011;10600;53.096;8.802;2023-07-29T02:53:52;137.95;;;51.58;;
20880;SDS011;10600;53.096;8.802;2023-07-29T02:54:53;135.38;;;51.03;;
20880;SDS011;10600;53.096;8.802;2023-07-29T02:55:54;130.75;;;50.25;;
20880;SDS011;10600;53.096;8.802;2023-07-29T02:56:55;123.82;;;47.67;;
20880;SDS011;10600;53.096;8.802;2023-07-29T02:57:56;145.02;;;52.53;;
20880;SDS011;10600;53.096;8.802;2023-07-29T02:58:57;132.63;;;50.03;;
20880;SDS011;10600;53.096;8.802;2023-07-29T02:59:58;134.00;;;50.15;;
20880;SDS011;10600;53.096;8.802;2023-07-29T03:01:03;136.20;;;51.25;;
20880;SDS011;10600;53.096;8.802;2023-07-29T03:02:04;136.75;;;50.92;;
20880;SDS011;10600;53.096;8.802;2023-07-29T03:03:05;134.35;;;51.05;;
20880;SDS011;10600;53.096;8.802;2023-07-29T03:04:06;136.90;;;51.38;;
20880;SDS011;10600;53.096;8.802;2023-07-29T03:05:08;130.05;;;49.40;;
20880;SDS011;10600;53.096;8.802;2023-07-29T03:06:10;128.68;;;49.95;;
20880;SDS011;10600;53.096;8.802;2023-07-29T03:07:11;142.48;;;51.58;;
20880;SDS011;10600;53.096;8.802;2023-07-29T03:08:12;141.95;;;50.97;;
20880;SDS011;10600;53.096;8.802;2023-07-29T03:09:13;147.68;;;52.20;;
20880;SDS011;10600;53.096;8.802;2023-07-29T03:10:14;144.25;;;52.53;;
20880;SDS011;10600;53.096;8.802;2023-07-29T03:11:15;152.27;;;52.65;;
20880;SDS011;10600;53.096;8.802;2023-07-29T03:12:16;154.68;;;51.85;;
20880;SDS011;10600;53.096;8.802;2023-07-29T03:13:17;144.85;;;52.53;;
20880;SDS011;10600;53.096;8.802;2023-07-29T03:14:18;134.55;;;51.00;;
20880;SDS011;10600;53.096;8.802;2023-07-29T03:15:22;133.18;;;51.60;;
20880;SDS011;10600;53.096;8.802;2023-07-29T03:16:23;140.13;;;52.05;;
20880;SDS011;10600;53.096;8.802;2023-07-29T03:17:25;144.75;;;53.45;;
20880;SDS011;10600;53.096;8.802;2023-07-29T03:18:26;165.48;;;54.75;;
20880;SDS011;10600;53.096;8.802;2023-07-29T03:19:27;149.93;;;53.22;;
20880;SDS011;10600;53.096;8.802;2023-07-29T03:20:27;143.07;;;53.00;;
20880;SDS011;10600;53.096;8.802;2023-07-29T03:21:28;141.05;;;51.75;;
20880;SDS011;10600;53.096;8.802;2023-07-29T03:22:29;145.23;;;52.72;;
20880;SDS011;10600;53.096;8.802;2023-07-29T03:23:31;151.30;;;52.58;;
20880;SDS011;10600;53.096;8.802;2023-07-29T03:24:32;134.40;;;49.35;;
20880;SDS011;10600;53.096;8.802;2023-07-29T03:25:33;149.80;;;53.95;;
20880;SDS011;10600;53.096;8.802;2023-07-29T03:26:34;152.68;;;54.38;;
20880;SDS011;10600;53.096;8.802;2023-07-29T03:27:35;148.88;;;55.20;;
20880;SDS011;10600;53.096;8.802;2023-07-29T03:28:40;141.20;;;52.47;;
20880;SDS011;10600;53.096;8.802;2023-07-29T03:29:41;164.30;;;55.00;;
20880;SDS011;10600;53.096;8.802;2023-07-29T03:30:43;155.57;;;56.50;;
20880;SDS011;10600;53.096;8.802;2023-07-29T03:31:44;147.85;;;55.38;;
20880;SDS011;10600;53.096;8.802;2023-07-29T03:32:45;146.93;;;53.78;;
20880;SDS011;10600;53.096;8.802;2023-07-29T03:33:46;150.50;;;56.22;;
20880;SDS011;10600;53.096;8.802;2023-07-29T03:34:47;145.50;;;54.28;;
20880;SDS011;10600;53.096;8.802;2023-07-29T03:35:48;145.05;;;52.80;;
20880;SDS011;10600;53.096;8.802;2023-07-29T03:36:49;146.70;;;54.75;;
20880;SDS011;10600;53.096;8.802;2023-07-29T03:37:51;143.27;;;54.28;;
20880;SDS011;10600;53.096;8.802;2023-07-29T03:38:52;146.70;;;54.55;;
20880;SDS011;10600;53.096;8.802;2023-07-29T03:39:53;154.23;;;54.80;;
20880;SDS011;10600;53.096;8.802;2023-07-29T03:40:54;139.13;;;53.63;;
20880;SDS011;10600;53.096;8.802;2023-07-29T03:41:55;143.30;;;54.20;;
20880;SDS011;10600;53.096;8.802;2023-07-29T03:42:56;145.20;;;52.90;;
20880;SDS011;10600;53.096;8.802;2023-07-29T03:43:58;141.98;;;54.25;;
20880;SDS011;10600;53.096;8.802;2023-07-29T03:44:59;129.82;;;51.50;;
20880;SDS011;10600;53.096;8.802;2023-07-29T03:46:00;148.10;;;54.15;;
20880;SDS011;10600;53.096;8.802;2023-07-29T03:47:01;139.32;;;52.53;;
20880;SDS011;10600;53.096;8.802;2023-07-29T03:48:03;148.75;;;54.17;;
20880;SDS011;10600;53.096;8.802;2023-07-29T03:49:04;132.23;;;50.72;;
20880;SDS011;10600;53.096;8.802;2023-07-29T03:50:05;132.68;;;51.33;;
20880;SDS011;10600;53.096;8.802;2023-07-29T03:51:06;126.78;;;47.80;;
20880;SDS011;10600;53.096;8.802;2023-07-29T03:52:07;126.72;;;50.90;;
20880;SDS011;10600;53.096;8.802;2023-07-29T03:53:08;132.82;;;51.67;;
20880;SDS011;10600;53.096;8.802;2023-07-29T03:54:10;131.70;;;51.13;;
20880;SDS011;10600;53.096;8.802;2023-07-29T03:55:11;128.45;;;51.70;;
20880;SDS011;10600;53.096;8.802;2023-07-29T03:56:12;132.75;;;52.03;;
20880;SDS011;10600;53.096;8.802;2023-07-29T03:57:13;123.32;;;49.20;;
20880;SDS011;10600;53.096;8.802;2023-07-29T03:58:14;139.68;;;52.78;;
20880;SDS011;10600;53.096;8.802;2023-07-29T03:59:15;138.07;;;51.88;;
20880;SDS011;10600;53.096;8.802;2023-07-29T04:00:16;148.30;;;51.35;;
20880;SDS011;10600;53.096;8.802;2023-07-29T04:01:17;139.07;;;51.33;;
20880;SDS011;10600;53.096;8.802;2023-07-29T04:02:18;140.25;;;51.42;;
20880;SDS011;10600;53.096;8.802;2023-07-29T04:03:19;127.53;;;50.20;;
20880;SDS011;10600;53.096;8.802;2023-07-29T04:04:20;144.50;;;48.33;;
20880;SDS011;10600;53.096;8.802;2023-07-29T04:05:21;177.50;;;53.75;;
20880;SDS011;10600;53.096;8.802;2023-07-29T04:06:22;4.35;;;3.95;;
20880;SDS011;10600;53.096;8.802;2023-07-29T04:07:23;1.75;;;1.65;;
20880;SDS011;10600;53.096;8.802;2023-07-29T04:08:24;3.75;;;3.45;;
20880;SDS011;10600;53.096;8.802;2023-07-29T04:09:26;11.20;;;3.10;;
20880;SDS011;10600;53.096;8.802;2023-07-29T04:10:27;1.70;;;1.65;;
20880;SDS011;10600;53.096;8.802;2023-07-29T04:11:28;2.55;;;2.40;;
20880;SDS011;10600;53.096;8.802;2023-07-29T04:12:29;5.05;;;2.70;;
20880;SDS011;10600;53.096;8.802;2023-07-29T04:13:30;6.65;;;4.28;;
20880;SDS011;10600;53.096;8.802;2023-07-29T04:14:31;5.88;;;3.20;;
20880;SDS011;10600;53.096;8.802;2023-07-29T04:15:32;3.13;;;1.38;;
20880;SDS011;10600;53.096;8.802;2023-07-29T04:16:33;2.35;;;2.25;;
20880;SDS011;10600;53.096;8.802;2023-07-29T04:17:34;3.13;;;2.03;;
20880;SDS011;10600;53.096;8.802;2023-07-29T04:18:35;3.15;;;2.58;;
20880;SDS011;10600;53.096;8.802;2023-07-29T04:19:36;4.63;;;2.05;;
20880;SDS011;10600;53.096;8.802;2023-07-29T04:20:37;5.55;;;4.95;;
20880;SDS011;10600;53.096;8.802;2023-07-29T04:21:38;3.22;;;2.50;;
20880;SDS011;10600;53.096;8.802;2023-07-29T04:22:39;2.85;;;1.88;;
20880;SDS011;10600;53.096;8.802;2023-07-29T04:23:40;2.58;;;1.98;;
20880;SDS011;10600;53.096;8.802;2023-07-29T04:24:42;3.75;;;2.53;;
20880;SDS011;10600;53.096;8.802;2023-07-29T04:25:43;2.08;;;1.98;;
20880;SDS011;10600;53.096;8.802;2023-07-29T04:26:44;4.30;;;3.20;;
20880;SDS011;10600;53.096;8.802;2023-07-29T04:27:45;5.80;;;2.60;;
20880;SDS011;10600;53.096;8.802;2023-07-29T04:28:46;3.00;;;2.08;;
20880;SDS011;10600;53.096;8.802;2023-07-29T04:29:47;1.83;;;1.73;;
20880;SDS011;10600;53.096;8.802;2023-07-29T04:30:48;2.05;;;1.90;;
20880;SDS011;10600;53.096;8.802;2023-07-29T04:31:49;3.13;;;2.80;;
20880;SDS011;10600;53.096;8.802;2023-07-29T04:32:50;1.83;;;1.73;;
20880;SDS011;10600;53.096;8.802;2023-07-29T04:33:51;1.35;;;1.25;;
20880;SDS011;10600;53.096;8.802;2023-07-29T04:34:52;3.83;;;2.53;;
20880;SDS011;10600;53.096;8.802;2023-07-29T04:35:53;1.58;;;1.48;;
20880;SDS011;10600;53.096;8.802;2023-07-29T04:36:55;4.03;;;2.63;;
20880;SDS011;10600;53.096;8.802;2023-07-29T04:37:56;2.17;;;2.05;;
20880;SDS011;10600;53.096;8.802;2023-07-29T04:38:57;2.55;;;2.35;;
20880;SDS011;10600;53.096;8.802;2023-07-29T04:39:58;2.95;;;2.42;;
20880;SDS011;10600;53.096;8.802;2023-07-29T04:40:59;4.85;;;3.50;;
20880;SDS011;10600;53.096;8.802;2023-07-29T04:42:03;4.15;;;3.47;;
20880;SDS011;10600;53.096;8.802;2023-07-29T04:43:04;4.80;;;2.53;;
20880;SDS011;10600;53.096;8.802;2023-07-29T04:44:05;3.08;;;2.88;;
20880;SDS011;10600;53.096;8.802;2023-07-29T04:45:06;1.85;;;1.75;;
20880;SDS011;10600;53.096;8.802;2023-07-29T04:46:07;2.40;;;2.17;;
20880;SDS011;10600;53.096;8.802;2023-07-29T04:47:08;4.18;;;3.35;;
20880;SDS011;10600;53.096;8.802;2023-07-29T04:48:09;16.35;;;2.83;;
20880;SDS011;10600;53.096;8.802;2023-07-29T04:49:11;2.53;;;2.42;;
20880;SDS011;10600;53.096;8.802;2023-07-29T04:50:12;2.83;;;2.63;;
20880;SDS011;10600;53.096;8.802;2023-07-29T04:51:13;2.67;;;2.22;;
20880;SDS011;10600;53.096;8.802;2023-07-29T04:52:14;1.75;;;1.65;;
20880;SDS011;10600;53.096;8.802;2023-07-29T04:53:15;3.97;;;2.15;;
20880;SDS011;10600;53.096;8.802;2023-07-29T04:54:16;3.28;;;2.97;;
20880;SDS011;10600;53.096;8.802;2023-07-29T04:55:20;1.90;;;1.77;;
20880;SDS011;10600;53.096;8.802;2023-07-29T04:56:21;2.50;;;2.35;;
20880;SDS011;10600;53.096;8.802;2023-07-29T04:57:22;3.35;;;2.72;;
20880;SDS011;10600;53.096;8.802;2023-07-29T04:58:24;1.92;;;1.77;;
20880;SDS011;10600;53.096;8.802;2023-07-29T04:59:25;1.42;;;1.33;;
20880;SDS011;10600;53.096;8.802;2023-07-29T05:00:26;2.10;;;1.90;;
20880;SDS011;10600;53.096;8.802;2023-07-29T05:01:27;3.30;;;2.30;;
20880;SDS011;10600;53.096;8.802;2023-07-29T05:02:28;4.28;;;2.80;;
20880;SDS011;10600;53.096;8.802;2023-07-29T05:03:29;3.10;;;2.47;;
20880;SDS011;10600;53.096;8.802;2023-07-29T05:04:31;2.20;;;1.25;;
20880;SDS011;10600;53.096;8.802;2023-07-29T05:05:32;2.63;;;1.85;;
20880;SDS011;10600;53.096;8.802;2023-07-29T05:06:33;2.72;;;2.40;;
20880;SDS011;10600;53.096;8.802;2023-07-29T05:07:34;2.72;;;2.53;;
20880;SDS011;10600;53.096;8.802;2023-07-29T05:08:35;2.90;;;2.67;;
20880;SDS011;10600;53.096;8.802;2023-07-29T05:09:36;3.70;;;2.28;;
20880;SDS011;10600;53.096;8.802;2023-07-29T05:10:37;2.75;;;2.42;;
20880;SDS011;10600;53.096;8.802;2023-07-29T05:11:39;2.55;;;2.13;;
20880;SDS011;10600;53.096;8.802;2023-07-29T05:12:47;6.65;;;3.17;;
20880;SDS011;10600;53.096;8.802;2023-07-29T05:13:57;3.38;;;2.40;;
20880;SDS011;10600;53.096;8.802;2023-07-29T05:15:18;2.00;;;1.85;;
20880;SDS011;10600;53.096;8.802;2023-07-29T05:16:20;2.78;;;2.58;;
20880;SDS011;10600;53.096;8.802;2023-07-29T05:18:57;3.20;;;3.00;;
20880;SDS011;10600;53.096;8.802;2023-07-29T05:20:02;1.85;;;1.75;;
20880;SDS011;10600;53.096;8.802;2023-07-29T05:21:06;1.77;;;1.67;;
20880;SDS011;10600;53.096;8.802;2023-07-29T05:22:09;10.73;;;3.03;;
20880;SDS011;10600;53.096;8.802;2023-07-29T05:23:10;2.42;;;1.73;;
20880;SDS011;10600;53.096;8.802;2023-07-29T05:24:11;2.45;;;2.25;;
20880;SDS011;10600;53.096;8.802;2023-07-29T05:25:13;2.15;;;1.95;;
20880;SDS011;10600;53.096;8.802;2023-07-29T05:26:14;1.88;;;1.77;;
20880;SDS011;10600;53.096;8.802;2023-07-29T05:27:15;3.03;;;2.40;;
20880;SDS011;10600;53.096;8.802;2023-07-29T05:28:16;3.28;;;2.47;;
20880;SDS011;10600;53.096;8.802;2023-07-29T05:29:17;1.65;;;1.55;;
20880;SDS011;10600;53.096;8.802;2023-07-29T05:30:18;2.50;;;1.80;;
20880;SDS011;10600;53.096;8.802;2023-07-29T05:31:19;1.65;;;1.50;;
20880;SDS011;10600;53.096;8.802;2023-07-29T05:32:20;2.97;;;2.63;;
20880;SDS011;10600;53.096;8.802;2023-07-29T05:33:21;3.70;;;2.03;;
20880;SDS011;10600;53.096;8.802;2023-07-29T05:34:22;2.25;;;2.15;;
20880;SDS011;10600;53.096;8.802;2023-07-29T05:35:24;0.77;;;0.77;;
20880;SDS011;10600;53.096;8.802;2023-07-29T05:36:25;2.65;;;1.92;;
20880;SDS011;10600;53.096;8.802;2023-07-29T05:37:26;0.88;;;0.88;;
20880;SDS011;10600;53.096;8.802;2023-07-29T05:38:27;1.60;;;1.52;;
20880;SDS011;10600;53.096;8.802;2023-07-29T05:39:28;5.05;;;1.98;;
20880;SDS011;10600;53.096;8.802;2023-07-29T05:40:29;1.80;;;1.70;;
20880;SDS011;10600;53.096;8.802;2023-07-29T05:41:30;2.38;;;2.17;;
20880;SDS011;10600;53.096;8.802;2023-07-29T05:42:31;4.22;;;2.40;;
20880;SDS011;10600;53.096;8.802;2023-07-29T05:43:32;1.90;;;1.42;;
20880;SDS011;10600;53.096;8.802;2023-07-29T05:44:33;2.60;;;1.90;;
20880;SDS011;10600;53.096;8.802;2023-07-29T05:45:34;1.33;;;1.25;;
20880;SDS011;10600;53.096;8.802;2023-07-29T05:46:35;10.15;;;3.58;;
20880;SDS011;10600;53.096;8.802;2023-07-29T05:47:37;1.45;;;1.35;;
20880;SDS011;10600;53.096;8.802;2023-07-29T05:48:38;1.10;;;1.10;;
20880;SDS011;10600;53.096;8.802;2023-07-29T05:49:39;1.77;;;1.67;;
20880;SDS011;10600;53.096;8.802;2023-07-29T05:50:40;3.25;;;2.83;;
20880;SDS011;10600;53.096;8.802;2023-07-29T05:51:42;0.77;;;0.77;;
20880;SDS011;10600;53.096;8.802;2023-07-29T05:52:43;8.18;;;3.78;;
20880;SDS011;10600;53.096;8.802;2023-07-29T05:53:44;1.15;;;1.05;;
20880;SDS011;10600;53.096;8.802;2023-07-29T05:54:45;1.77;;;1.65;;
20880;SDS011;10600;53.096;8.802;2023-07-29T05:55:46;3.30;;;3.03;;
20880;SDS011;10600;53.096;8.802;2023-07-29T05:56:47;1.75;;;1.48;;
20880;SDS011;10600;53.096;8.802;2023-07-29T05:57:48;2.60;;;1.55;;
20880;SDS011;10600;53.096;8.802;2023-07-29T05:58:49;1.70;;;1.60;;
20880;SDS011;10600;53.096;8.802;2023-07-29T05:59:50;3.28;;;3.03;;
20880;SDS011;10600;53.096;8.802;2023-07-29T06:00:51;5.20;;;2.47;;
20880;SDS011;10600;53.096;8.802;2023-07-29T06:01:52;2.17;;;1.75;;
20880;SDS011;10600;53.096;8.802;2023-07-29T06:02:53;2.92;;;2.58;;
20880;SDS011;10600;53.096;8.802;2023-07-29T06:03:54;2.88;;;2.03;;
20880;SDS011;10600;53.096;8.802;2023-07-29T06:04:55;2.15;;;1.95;;
20880;SDS011;10600;53.096;8.802;2023-07-29T06:05:56;0.82;;;0.82;;
20880;SDS011;10600;53.096;8.802;2023-07-29T06:06:58;1.52;;;1.45;;
20880;SDS011;10600;53.096;8.802;2023-07-29T06:08:02;2.70;;;2.47;;
20880;SDS011;10600;53.096;8.802;2023-07-29T06:09:12;2.30;;;2.13;;
20880;SDS011;10600;53.096;8.802;2023-07-29T06:10:14;1.25;;;1.10;;
20880;SDS011;10600;53.096;8.802;2023-07-29T06:11:18;1.83;;;1.73;;